x

South Brooks (46132) Wave Buoy

12:00 - Fri 27th May 2016 All times are PDT. -7 hours from GMT.

  • Sig Wave height 6.2ft
  • Peak Period 6s
  • Wind
    18mph, 22mph gusts
  • Sea Temp 53°f
  • Ar Temp 52°f
  • Sea Pressure 1021.9mb
  • South Brooks
  • South Brooks

More Historic Weather Station data

Upgrade to MSW Pro to gain access to the past 30 days of data for over 8000 Wavebouys and Weather Stations around the globe.

Join Pro

Comparision Forecast

View Surf forecast
   
Sex 05/27 12:00 6ft 6s 18 22 mph 1021.9mb 53f 52f
Qui 05/26 11:00 6.5ft 6s 20 25 mph 1022.1mb 53f 52f
10:00 6ft 6s 22 27 mph 1022mb 53f 52f
9:00 5.5ft 6s 22 27 mph 1021.7mb 53f 52f
8:00 6ft 6s 22 27 mph 1021.7mb 53f 53f
7:00 5.5ft 6s 25 29 mph 1021.6mb 53f 52f
6:00 5ft 6s 25 29 mph 1021.9mb 53f 53f
5:00 5ft 7s 20 25 mph 1022.1mb 53f 53f
4:00 5ft 6s 20 25 mph 1022.8mb 53f 53f
3:00 5ft 5s 20 25 mph 1023.1mb 53f 53f
2:00 5ft 6s 20 25 mph 1023.1mb 53f 52f
1:00 5ft 6s 20 25 mph 1023.3mb 53f 52f
12:00 5ft 6s 20 25 mph 1023.4mb 53f 52f
11:00 5ft 6s 18 22 mph 1023.4mb 53f 52f
10:00 5ft 6s 18 20 mph 1023.5mb 53f 52f
9:00 5ft 6s 18 22 mph 1023.5mb 53f 52f
8:00 5ft 5s 18 22 mph 1023.2mb 53f 52f
7:00 5.5ft 6s 18 22 mph 1023.2mb 53f 51f
6:00 5ft 7s 22 25 mph 1023mb 53f 52f
5:00 6ft 6s 22 27 mph 1023mb 53f 52f
4:00 6ft 6s 25 29 mph 1022.7mb 53f 52f
3:00 6.5ft 6s 25 31 mph 1022.9mb 53f 52f
2:00 7ft 6s 25 29 mph 1023mb 53f 52f
1:00 6.5ft 6s 25 29 mph 1022.9mb 53f 53f
12:00 6.5ft 6s 25 29 mph 1023.1mb 53f 53f
Qua 05/25 11:00 7ft 6s 25 29 mph 1023.1mb 53f 53f
10:00 7ft 6s 29 34 mph 1022.9mb 53f 52f
9:00 7.5ft 6s 25 31 mph 1023mb 53f 53f
8:00 7ft 6s 27 36 mph 1023mb 53f 53f
7:00 7ft 7s 29 34 mph 1022.8mb 53f 53f
6:00 6.5ft 5s 29 34 mph 1022.5mb 53f 53f
5:00 6ft 6s 25 31 mph 1022.6mb 54f 53f
4:00 6ft 7s 27 31 mph 1022.4mb 54f 53f
3:00 6ft 6s 25 29 mph 1022.5mb 54f 54f
2:00 6ft 7s 25 27 mph 1022.5mb 54f 54f
1:00 6ft 6s 22 27 mph 1022.5mb 54f 53f
12:00 5.5ft 8s 22 27 mph 1022.3mb 54f 53f
11:00 6ft 8s 22 27 mph 1022.2mb 54f 53f
10:00 6ft 8s 22 25 mph 1021.7mb 54f 53f
9:00 6ft 8s 20 25 mph 1021.6mb 54f 53f
8:00 6ft 8s 20 22 mph 1021.3mb 53f 53f
7:00 6ft 8s 20 25 mph 1020.7mb 53f 52f
6:00 6ft 6s 20 25 mph 1020.4mb 53f 52f
5:00 6.5ft 7s 22 29 mph 1020.2mb 53f 52f
4:00 7ft 6s 25 29 mph 1019.8mb 53f 52f
3:00 7ft 6s 27 31 mph 1019.5mb 53f 52f
2:00 7ft 6s 27 31 mph 1019mb 53f 52f
1:00 7.5ft 7s 27 31 mph 1018.6mb 53f 52f
12:00 7.5ft 8s 27 31 mph 1018.3mb 53f 52f
Ter 05/24 11:00 7.5ft 6s 27 31 mph 1018mb 52f 53f
10:00 8ft 7s 27 31 mph 1017.7mb 52f 53f
9:00 8ft 8s 29 36 mph 1017.1mb 52f 53f
8:00 7.5ft 6s 27 34 mph 1016.8mb 52f 54f
7:00 8ft 8s 27 34 mph 1016.6mb 53f 54f
6:00 8ft 8s 29 36 mph 1016.5mb 53f 54f
5:00 8ft 10s 27 31 mph 1016.6mb 52f 54f
4:00 7.5ft 9s 27 31 mph 1016.6mb 53f 53f
3:00 7ft 9s 25 31 mph 1016.7mb 53f 54f
2:00 7ft 9s 27 31 mph 1016.7mb 53f 54f
1:00 6.5ft 10s 25 29 mph 1016.5mb 53f 54f
12:00 7ft 9s 22 29 mph 1016.4mb 53f 54f
11:00 6.5ft 10s 22 27 mph 1016.3mb 53f 54f
10:00 7ft 10s 22 27 mph 1015.8mb 53f 54f
9:00 6.5ft 10s 25 27 mph 1015.7mb 54f 53f
8:00 7ft 8s 22 27 mph 1015.6mb 53f 53f
7:00 6.5ft 10s 18 25 mph 1015.3mb 53f 53f
6:00 7ft 10s 20 25 mph 1015mb 53f 53f
5:00 7ft 9s 20 27 mph 1014.9mb 53f 53f
4:00 6.5ft 10s 20 25 mph 1014.6mb 53f 53f
3:00 6.5ft 9s 22 27 mph 1014.4mb 52f 53f
2:00 7ft 10s 20 25 mph 1014.5mb 52f 53f
1:00 6ft 9s 22 29 mph 1014.7mb 52f 53f
12:00 6.5ft 10s 22 27 mph 1014.9mb 52f 53f
Seg 05/23 11:00 5.5ft 10s 22 27 mph 1014.9mb 52f 53f
10:00 5.5ft 9s 22 25 mph 1014.9mb 52f 54f
9:00 6.5ft 9s 20 25 mph 1014.8mb 52f 54f
8:00 6ft 10s 25 29 mph 1014.5mb 54f 55f
7:00 7ft 10s 22 27 mph 1014.5mb 54f 55f
6:00 7ft 9s 22 27 mph 1014.6mb 54f 55f
5:00 7ft 9s 22 27 mph 1014.6mb 54f 55f
4:00 6.5ft 10s 22 25 mph 1014.8mb 53f 55f
3:00 6.5ft 10s 22 27 mph 1014.7mb 54f 54f
2:00 7ft 10s 20 25 mph 1014.6mb 55f 54f
1:00 6ft 10s 20 25 mph 1014.3mb 55f 55f
12:00 6ft 9s 18 20 mph 1014.2mb 54f 55f
11:00 7ft 10s 16 20 mph 1014.3mb 54f 55f
10:00 6ft 9s 13 18 mph 1014.5mb 54f 54f
9:00 5.5ft 10s 13 16 mph 1014.4mb 54f 54f